Time;durP1;ratioP1;P1;durP2;ratioP2;P2;SDS_P1;SDS_P2;PMS_P1;PMS_P2;Temp;Humidity;BMP_temperature;BMP_pressure;BME280_temperature;BME280_humidity;BME280_pressure;Samples;Min_cycle;Max_cycle;Signal;HPM_P1;HPM_P2
2022/09/27 00:01:58;;;;;;;12.00;6.35;;;;;;;;;;5005217;28;20086;-49
2022/09/27 00:04:25;;;;;;;10.05;6.00;;;;;;;;;;5009167;28;20054;-49
2022/09/27 00:06:51;;;;;;;11.48;5.72;;;;;;;;;;5008113;28;20059;-50
2022/09/27 00:09:17;;;;;;;11.77;6.03;;;;;;;;;;5001237;28;20050;-49
2022/09/27 00:11:46;;;;;;;13.27;7.05;;;;;;;;;;5010398;28;20719;-50
2022/09/27 00:14:13;;;;;;;11.50;6.18;;;;;;;;;;5002175;28;20077;-48
2022/09/27 00:16:41;;;;;;;10.52;5.38;;;;;;;;;;4992417;28;20113;-48
2022/09/27 00:19:09;;;;;;;10.80;5.63;;;;;;;;;;5007614;28;20364;-49
2022/09/27 00:21:36;;;;;;;10.40;5.90;;;;;;;;;;5004172;28;20046;-49
2022/09/27 00:24:02;;;;;;;11.07;6.32;;;;;;;;;;5012136;28;20060;-48
2022/09/27 00:26:29;;;;;;;9.25;5.68;;;;;;;;;;5012194;28;20516;-48
2022/09/27 00:28:55;;;;;;;9.55;5.43;;;;;;;;;;5011953;28;20050;-50
2022/09/27 00:31:22;;;;;;;10.38;5.50;;;;;;;;;;5012671;28;20060;-50
2022/09/27 00:33:51;;;;;;;10.13;5.25;;;;;;;;;;5012539;28;20058;-49
2022/09/27 00:36:17;;;;;;;11.73;5.88;;;;;;;;;;5012353;28;20054;-52
2022/09/27 00:38:44;;;;;;;11.23;6.07;;;;;;;;;;5012328;28;20058;-51
2022/09/27 00:41:15;;;;;;;12.45;6.20;;;;;;;;;;5012078;28;20065;-49
2022/09/27 00:43:46;;;;;;;12.07;6.18;;;;;;;;;;5012263;28;20058;-48
2022/09/27 00:46:14;;;;;;;9.98;5.57;;;;;;;;;;5012064;28;20054;-49
2022/09/27 00:48:40;;;;;;;11.18;6.28;;;;;;;;;;4992692;28;20153;-48
2022/09/27 00:51:09;;;;;;;9.88;5.93;;;;;;;;;;4979661;28;20051;-49
2022/09/27 00:53:39;;;;;;;10.95;5.75;;;;;;;;;;4985660;28;20051;-51
2022/09/27 00:56:07;;;;;;;10.05;5.53;;;;;;;;;;4986815;28;20051;-48
2022/09/27 00:58:35;;;;;;;11.05;6.07;;;;;;;;;;4996200;28;20145;-51
2022/09/27 01:01:04;;;;;;;11.23;5.88;;;;;;;;;;4983512;28;20069;-49
2022/09/27 01:03:34;;;;;;;12.32;5.88;;;;;;;;;;4983766;28;20046;-52
2022/09/27 01:06:01;;;;;;;11.18;6.05;;;;;;;;;;4995698;28;20375;-49
2022/09/27 01:08:28;;;;;;;11.88;6.00;;;;;;;;;;4992793;28;20043;-49
2022/09/27 01:11:02;;;;;;;10.63;5.72;;;;;;;;;;4987214;28;20069;-50
2022/09/27 01:13:33;;;;;;;10.35;6.03;;;;;;;;;;4991795;28;20050;-49
2022/09/27 01:16:02;;;;;;;11.82;6.57;;;;;;;;;;4995904;28;20084;-50
2022/09/27 01:18:32;;;;;;;12.32;6.20;;;;;;;;;;4995308;28;20050;-49
2022/09/27 01:21:08;;;;;;;9.32;5.40;;;;;;;;;;4995356;28;20057;-52
2022/09/27 01:23:51;;;;;;;8.52;5.28;;;;;;;;;;4995728;28;20089;-50
2022/09/27 01:26:23;;;;;;;11.18;5.95;;;;;;;;;;4975600;28;20086;-50
2022/09/27 01:28:56;;;;;;;10.02;5.60;;;;;;;;;;4990364;28;20050;-52
2022/09/27 01:31:27;;;;;;;12.32;5.40;;;;;;;;;;4995428;28;20533;-50
2022/09/27 01:34:01;;;;;;;10.45;5.85;;;;;;;;;;4993786;28;20061;-50
2022/09/27 01:36:30;;;;;;;11.57;5.95;;;;;;;;;;4984831;28;20066;-50
2022/09/27 01:39:01;;;;;;;9.98;5.32;;;;;;;;;;4995621;28;20054;-51
2022/09/27 01:41:29;;;;;;;10.20;5.43;;;;;;;;;;4996034;28;20058;-50
2022/09/27 01:43:57;;;;;;;10.50;5.65;;;;;;;;;;4995473;28;20054;-50
2022/09/27 01:46:26;;;;;;;9.77;5.72;;;;;;;;;;4995698;28;20148;-53
2022/09/27 01:48:54;;;;;;;9.50;5.38;;;;;;;;;;5014583;28;20509;-50
2022/09/27 01:51:22;;;;;;;11.27;6.13;;;;;;;;;;5014629;28;20501;-51
2022/09/27 01:53:51;;;;;;;11.15;6.20;;;;;;;;;;5015012;28;20050;-50
2022/09/27 01:56:19;;;;;;;10.38;6.13;;;;;;;;;;5014131;28;20056;-47
2022/09/27 01:58:49;;;;;;;10.93;6.00;;;;;;;;;;5014853;28;20049;-50
2022/09/27 02:01:17;;;;;;;10.40;5.43;;;;;;;;;;5014378;28;20050;-49
2022/09/27 02:03:47;;;;;;;10.40;6.03;;;;;;;;;;5014696;28;20072;-50
2022/09/27 02:06:15;;;;;;;11.27;6.35;;;;;;;;;;5005935;28;20470;-52
2022/09/27 02:08:43;;;;;;;11.50;5.60;;;;;;;;;;4999016;28;20050;-51
2022/09/27 02:11:11;;;;;;;10.77;5.95;;;;;;;;;;5001537;28;20050;-52
2022/09/27 02:13:39;;;;;;;12.55;7.15;;;;;;;;;;5004794;28;20050;-49
2022/09/27 02:16:09;;;;;;;9.85;5.07;;;;;;;;;;5000683;28;20064;-49
2022/09/27 02:18:39;;;;;;;11.00;6.57;;;;;;;;;;5014362;28;20054;-49
2022/09/27 02:21:11;;;;;;;9.18;5.05;;;;;;;;;;5001144;28;20049;-52
2022/09/27 02:23:39;;;;;;;9.38;5.30;;;;;;;;;;5012648;28;20064;-49
2022/09/27 02:26:11;;;;;;;10.73;5.88;;;;;;;;;;5014025;28;20060;-49
2022/09/27 02:28:39;;;;;;;10.38;6.00;;;;;;;;;;5013018;28;20359;-50
2022/09/27 02:31:05;;;;;;;10.90;6.00;;;;;;;;;;5013578;28;20049;-48
2022/09/27 02:33:36;;;;;;;9.35;5.57;;;;;;;;;;5013201;28;20371;-49
2022/09/27 02:36:02;;;;;;;9.82;5.95;;;;;;;;;;5013466;28;20654;-50
2022/09/27 02:38:30;;;;;;;14.88;7.32;;;;;;;;;;5014176;28;20049;-49
2022/09/27 02:40:56;;;;;;;12.13;6.05;;;;;;;;;;5000389;28;20505;-50
2022/09/27 02:43:24;;;;;;;11.15;6.13;;;;;;;;;;5012967;28;20062;-49
2022/09/27 02:45:54;;;;;;;12.07;6.63;;;;;;;;;;4998598;28;20050;-52
2022/09/27 02:48:25;;;;;;;10.38;5.53;;;;;;;;;;4993353;28;20058;-51
2022/09/27 02:51:02;;;;;;;12.32;6.32;;;;;;;;;;5000985;28;20057;-49
2022/09/27 02:53:35;;;;;;;14.68;6.95;;;;;;;;;;5006051;28;20128;-53
2022/09/27 02:56:09;;;;;;;13.85;6.32;;;;;;;;;;5013251;28;20516;-52
2022/09/27 02:58:43;;;;;;;14.40;7.60;;;;;;;;;;5013239;28;20046;-52
2022/09/27 03:01:12;;;;;;;15.23;6.80;;;;;;;;;;5012448;28;20050;-50
2022/09/27 03:03:43;;;;;;;15.70;7.65;;;;;;;;;;4993828;28;20304;-48
2022/09/27 03:06:10;;;;;;;13.50;7.40;;;;;;;;;;4999300;28;20054;-51
2022/09/27 03:08:38;;;;;;;12.65;7.05;;;;;;;;;;4999737;28;20371;-49
2022/09/27 03:11:05;;;;;;;10.50;5.97;;;;;;;;;;5013269;28;20069;-49
2022/09/27 03:13:32;;;;;;;9.68;5.57;;;;;;;;;;5007742;28;20050;-49
2022/09/27 03:15:58;;;;;;;11.20;5.72;;;;;;;;;;5005843;28;20049;-52
2022/09/27 03:18:25;;;;;;;11.30;5.63;;;;;;;;;;5010224;28;20049;-49
2022/09/27 03:20:52;;;;;;;9.27;5.43;;;;;;;;;;4993571;28;20046;-53
2022/09/27 03:23:19;;;;;;;12.07;6.47;;;;;;;;;;5004371;28;20057;-49
2022/09/27 03:25:47;;;;;;;9.40;5.68;;;;;;;;;;5004375;28;20046;-50
2022/09/27 03:28:13;;;;;;;11.70;6.50;;;;;;;;;;5004351;28;20064;-51
2022/09/27 03:30:41;;;;;;;10.40;6.32;;;;;;;;;;4998497;28;20061;-52
2022/09/27 03:33:08;;;;;;;12.85;6.65;;;;;;;;;;5004618;28;20058;-50
2022/09/27 03:35:34;;;;;;;12.65;7.00;;;;;;;;;;5012638;28;20088;-49
2022/09/27 03:38:01;;;;;;;12.65;7.25;;;;;;;;;;5012681;28;20391;-50
2022/09/27 03:40:27;;;;;;;12.85;6.65;;;;;;;;;;4998924;28;20054;-49
2022/09/27 03:42:55;;;;;;;14.70;6.75;;;;;;;;;;5012926;28;20056;-50
2022/09/27 03:45:21;;;;;;;10.32;6.13;;;;;;;;;;5012454;28;20477;-49
2022/09/27 03:47:47;;;;;;;11.85;6.68;;;;;;;;;;4998533;28;20069;-49
2022/09/27 03:50:14;;;;;;;9.40;6.05;;;;;;;;;;5000984;28;20089;-49
2022/09/27 03:52:42;;;;;;;11.25;6.97;;;;;;;;;;5005490;28;20050;-49
2022/09/27 03:55:09;;;;;;;10.57;5.82;;;;;;;;;;5002590;28;20088;-49
2022/09/27 03:57:35;;;;;;;11.15;6.57;;;;;;;;;;5012030;28;20065;-52
2022/09/27 04:00:03;;;;;;;12.13;6.22;;;;;;;;;;5012525;28;20053;-50
2022/09/27 04:02:31;;;;;;;14.10;7.00;;;;;;;;;;5012390;28;20129;-50
2022/09/27 04:04:58;;;;;;;12.73;6.30;;;;;;;;;;5011866;28;20062;-50
2022/09/27 04:07:26;;;;;;;13.70;7.38;;;;;;;;;;5009951;28;20470;-52
2022/09/27 04:09:52;;;;;;;11.73;6.25;;;;;;;;;;4995277;28;20046;-52
2022/09/27 04:12:20;;;;;;;10.32;5.88;;;;;;;;;;4994033;28;20065;-50
2022/09/27 04:14:46;;;;;;;12.55;6.95;;;;;;;;;;5007308;28;20050;-49
2022/09/27 04:17:18;;;;;;;13.65;7.25;;;;;;;;;;5012642;28;20045;-51
2022/09/27 04:19:45;;;;;;;16.60;8.63;;;;;;;;;;5011452;28;20046;-49
2022/09/27 04:22:12;;;;;;;23.15;9.45;;;;;;;;;;5007464;28;20053;-52
2022/09/27 04:24:38;;;;;;;24.60;9.90;;;;;;;;;;5007066;28;20061;-51
2022/09/27 04:27:05;;;;;;;20.73;9.52;;;;;;;;;;4993120;28;20050;-49
2022/09/27 04:29:31;;;;;;;21.00;9.05;;;;;;;;;;5004895;28;20521;-51
2022/09/27 04:31:58;;;;;;;18.10;9.27;;;;;;;;;;5000208;28;20050;-50
2022/09/27 04:37:06;;;;;;;19.52;8.45;;;;;;;;;;5014027;28;20046;-52
2022/09/27 04:39:33;;;;;;;22.88;10.02;;;;;;;;;;5015480;28;20150;-52
2022/09/27 04:41:59;;;;;;;16.02;8.32;;;;;;;;;;5015347;28;20050;-49
2022/09/27 04:44:26;;;;;;;18.00;8.75;;;;;;;;;;5015273;28;20054;-48
2022/09/27 04:46:52;;;;;;;18.30;8.82;;;;;;;;;;5015027;28;20065;-49
2022/09/27 04:49:20;;;;;;;18.42;8.07;;;;;;;;;;5014779;28;20061;-48
2022/09/27 04:51:47;;;;;;;18.17;8.90;;;;;;;;;;5015328;28;20061;-49
2022/09/27 04:54:14;;;;;;;16.10;8.00;;;;;;;;;;4999521;28;20495;-48
2022/09/27 04:56:41;;;;;;;15.85;8.00;;;;;;;;;;4995608;28;20379;-49
2022/09/27 04:59:08;;;;;;;17.45;8.70;;;;;;;;;;4996447;28;20054;-52
2022/09/27 05:01:35;;;;;;;15.63;7.95;;;;;;;;;;5008979;28;20057;-52
2022/09/27 05:04:01;;;;;;;14.77;7.20;;;;;;;;;;4998295;28;20065;-47
2022/09/27 05:06:27;;;;;;;14.50;8.05;;;;;;;;;;5013594;28;20065;-49
2022/09/27 05:08:55;;;;;;;13.93;6.82;;;;;;;;;;5004477;28;20383;-49
2022/09/27 05:11:22;;;;;;;15.52;8.18;;;;;;;;;;4995636;28;20443;-50
2022/09/27 05:13:49;;;;;;;18.50;8.05;;;;;;;;;;4996716;28;20077;-49
2022/09/27 05:16:15;;;;;;;26.60;8.88;;;;;;;;;;5009457;28;20054;-50
2022/09/27 05:18:42;;;;;;;41.33;10.18;;;;;;;;;;5015676;28;20121;-49
2022/09/27 05:21:08;;;;;;;34.92;8.77;;;;;;;;;;5014847;28;20061;-50
2022/09/27 05:23:34;;;;;;;44.53;9.18;;;;;;;;;;5014764;28;20058;-50
2022/09/27 05:26:04;;;;;;;58.83;10.35;;;;;;;;;;5014879;28;20050;-49
2022/09/27 05:28:31;;;;;;;32.58;7.35;;;;;;;;;;4997756;28;20050;-48
2022/09/27 05:30:57;;;;;;;26.23;8.15;;;;;;;;;;5003683;28;20041;-49
2022/09/27 05:33:23;;;;;;;50.58;8.88;;;;;;;;;;5004422;28;20709;-51
2022/09/27 05:35:53;;;;;;;46.80;9.18;;;;;;;;;;5014543;28;20088;-49
2022/09/27 05:38:19;;;;;;;62.88;8.52;;;;;;;;;;5014840;28;20061;-49
2022/09/27 05:40:46;;;;;;;30.42;6.90;;;;;;;;;;5009681;28;20410;-52
2022/09/27 05:43:14;;;;;;;49.03;7.97;;;;;;;;;;4995772;28;20138;-48
2022/09/27 05:45:42;;;;;;;45.38;10.02;;;;;;;;;;4999237;28;20053;-48
2022/09/27 05:48:11;;;;;;;26.15;7.00;;;;;;;;;;5005712;28;20121;-50
2022/09/27 05:50:37;;;;;;;29.38;7.63;;;;;;;;;;5011867;28;20085;-48
2022/09/27 05:53:04;;;;;;;51.88;8.32;;;;;;;;;;5007842;28;20364;-50
2022/09/27 05:55:30;;;;;;;32.50;10.32;;;;;;;;;;5007632;28;20068;-49
2022/09/27 05:57:57;;;;;;;29.75;7.00;;;;;;;;;;5008918;28;20484;-51
2022/09/27 06:00:25;;;;;;;32.47;8.77;;;;;;;;;;4994542;28;20069;-50
2022/09/27 06:02:55;;;;;;;18.42;7.32;;;;;;;;;;5003988;28;20459;-48
2022/09/27 06:05:22;;;;;;;27.45;7.97;;;;;;;;;;4995838;28;20053;-50
2022/09/27 06:07:49;;;;;;;24.48;9.73;;;;;;;;;;5002077;28;20053;-52
2022/09/27 06:10:17;;;;;;;27.75;10.40;;;;;;;;;;5013881;28;20089;-52
2022/09/27 06:12:43;;;;;;;29.13;9.70;;;;;;;;;;5013784;28;20057;-50
2022/09/27 06:15:10;;;;;;;32.75;10.68;;;;;;;;;;5001185;28;20054;-48
2022/09/27 06:17:38;;;;;;;24.10;7.35;;;;;;;;;;5014132;28;20074;-49
2022/09/27 06:20:04;;;;;;;20.70;8.32;;;;;;;;;;5013658;28;20054;-48
2022/09/27 06:22:31;;;;;;;31.30;11.10;;;;;;;;;;5013867;28;20080;-50
2022/09/27 06:24:57;;;;;;;18.52;9.40;;;;;;;;;;5010705;28;20050;-47
2022/09/27 06:27:25;;;;;;;21.60;10.05;;;;;;;;;;5013866;28;20057;-48
2022/09/27 06:29:51;;;;;;;27.65;11.90;;;;;;;;;;5013312;28;20046;-49
2022/09/27 06:32:17;;;;;;;38.63;11.63;;;;;;;;;;5006374;28;20064;-47
2022/09/27 06:34:45;;;;;;;26.73;10.43;;;;;;;;;;5013111;28;20057;-47
2022/09/27 06:37:11;;;;;;;39.55;11.52;;;;;;;;;;5013412;28;20053;-48
2022/09/27 06:39:37;;;;;;;50.97;13.05;;;;;;;;;;5010043;28;20057;-47
2022/09/27 06:42:05;;;;;;;33.42;12.43;;;;;;;;;;5003607;28;20471;-47
2022/09/27 06:44:31;;;;;;;36.03;13.50;;;;;;;;;;5006463;28;20049;-48
2022/09/27 06:46:58;;;;;;;51.08;13.95;;;;;;;;;;5013025;28;20053;-47
2022/09/27 06:49:25;;;;;;;27.48;10.75;;;;;;;;;;5013321;28;20129;-47
2022/09/27 06:51:53;;;;;;;36.47;13.25;;;;;;;;;;5006746;28;20132;-48
2022/09/27 06:54:19;;;;;;;41.05;12.98;;;;;;;;;;4995583;28;20059;-48
2022/09/27 06:56:46;;;;;;;37.38;16.15;;;;;;;;;;5009692;28;20049;-50
2022/09/27 07:01:58;;;;;;;43.38;16.00;;;;;;;;;;5003175;28;20057;-48
2022/09/27 07:04:24;;;;;;;34.42;13.68;;;;;;;;;;5006338;28;20133;-48
2022/09/27 07:06:51;;;;;;;37.95;16.10;;;;;;;;;;4998791;28;20553;-48
2022/09/27 07:09:20;;;;;;;37.38;16.15;;;;;;;;;;5008063;28;20046;-48
2022/09/27 07:11:47;;;;;;;33.80;13.20;;;;;;;;;;5010331;28;20054;-47
2022/09/27 07:14:13;;;;;;;36.67;18.13;;;;;;;;;;5007264;28;20156;-49
2022/09/27 07:16:39;;;;;;;32.75;16.15;;;;;;;;;;5008068;28;20054;-47
2022/09/27 07:19:06;;;;;;;36.17;16.58;;;;;;;;;;5004851;28;20038;-48
2022/09/27 07:21:32;;;;;;;39.17;17.20;;;;;;;;;;5002644;28;20049;-48
2022/09/27 07:23:59;;;;;;;40.55;17.33;;;;;;;;;;5004980;28;20057;-50
2022/09/27 07:26:26;;;;;;;30.17;13.70;;;;;;;;;;5008044;28;20414;-48
2022/09/27 07:28:53;;;;;;;33.15;15.50;;;;;;;;;;4999576;28;20049;-48
2022/09/27 07:31:19;;;;;;;37.72;17.98;;;;;;;;;;5009184;28;20058;-47
2022/09/27 07:33:45;;;;;;;38.20;18.83;;;;;;;;;;5010938;28;20560;-50
2022/09/27 07:36:12;;;;;;;39.33;17.92;;;;;;;;;;5003501;28;20046;-49
2022/09/27 07:38:38;;;;;;;36.15;17.95;;;;;;;;;;5005525;28;20545;-48
2022/09/27 07:41:05;;;;;;;30.00;14.82;;;;;;;;;;5011513;28;20041;-48
2022/09/27 07:43:33;;;;;;;34.65;17.55;;;;;;;;;;5008666;28;20058;-47
2022/09/27 07:45:59;;;;;;;37.78;18.15;;;;;;;;;;5007304;28;20749;-51
2022/09/27 07:48:26;;;;;;;37.30;17.13;;;;;;;;;;5001353;28;20061;-50
2022/09/27 07:50:52;;;;;;;35.47;18.10;;;;;;;;;;5003210;28;20045;-49
2022/09/27 07:53:19;;;;;;;37.17;17.42;;;;;;;;;;4994742;28;20062;-48
2022/09/27 07:55:49;;;;;;;27.65;13.23;;;;;;;;;;5003253;28;20136;-49
2022/09/27 07:58:16;;;;;;;28.60;14.25;;;;;;;;;;5011367;28;20708;-49
2022/09/27 08:00:43;;;;;;;39.55;18.20;;;;;;;;;;5004398;28;20045;-49
2022/09/27 08:03:13;;;;;;;26.60;13.20;;;;;;;;;;5005690;28;20069;-49
2022/09/27 08:05:39;;;;;;;31.23;16.25;;;;;;;;;;5005467;28;20057;-48
2022/09/27 08:08:05;;;;;;;30.17;16.73;;;;;;;;;;5012698;28;20085;-48
2022/09/27 08:10:32;;;;;;;30.20;15.52;;;;;;;;;;5007614;28;20372;-51
2022/09/27 08:13:02;;;;;;;32.35;17.15;;;;;;;;;;5008137;28;20053;-49
2022/09/27 08:15:28;;;;;;;28.65;14.35;;;;;;;;;;5005205;28;20057;-48
2022/09/27 08:17:56;;;;;;;34.45;17.33;;;;;;;;;;5011341;28;20178;-48
2022/09/27 08:20:22;;;;;;;34.63;16.55;;;;;;;;;;5013640;28;20518;-48
2022/09/27 08:22:48;;;;;;;33.97;16.58;;;;;;;;;;5012595;28;20066;-49
2022/09/27 08:25:17;;;;;;;25.92;12.13;;;;;;;;;;5011060;28;20062;-48
2022/09/27 08:27:44;;;;;;;33.95;16.60;;;;;;;;;;5013946;28;20051;-48
2022/09/27 08:30:10;;;;;;;31.63;17.33;;;;;;;;;;5014311;28;20060;-48
2022/09/27 08:32:39;;;;;;;31.67;17.10;;;;;;;;;;5012511;28;20056;-48
2022/09/27 08:35:07;;;;;;;28.48;15.70;;;;;;;;;;5003013;28;20046;-51
2022/09/27 08:37:34;;;;;;;25.25;13.73;;;;;;;;;;5007085;28;20509;-48
2022/09/27 08:40:00;;;;;;;32.85;16.70;;;;;;;;;;5000825;28;20053;-51
2022/09/27 08:42:31;;;;;;;34.67;16.88;;;;;;;;;;5014463;28;20670;-49
2022/09/27 08:45:01;;;;;;;30.48;17.02;;;;;;;;;;5006761;28;20086;-49
2022/09/27 08:47:31;;;;;;;36.15;18.80;;;;;;;;;;5011638;28;20089;-48
2022/09/27 08:49:59;;;;;;;31.40;17.10;;;;;;;;;;5008671;28;20510;-49
2022/09/27 08:52:29;;;;;;;32.22;16.67;;;;;;;;;;5000564;28;20112;-48
2022/09/27 08:54:57;;;;;;;31.65;16.73;;;;;;;;;;4980835;28;20054;-48
2022/09/27 08:57:24;;;;;;;29.55;15.82;;;;;;;;;;4992351;28;20054;-48
2022/09/27 08:59:54;;;;;;;27.45;14.90;;;;;;;;;;4992903;28;20128;-48
2022/09/27 09:02:23;;;;;;;29.85;15.25;;;;;;;;;;4992960;28;20046;-50
2022/09/27 09:04:53;;;;;;;29.35;15.57;;;;;;;;;;5000562;28;20053;-51
2022/09/27 09:07:37;;;;;;;31.50;16.35;;;;;;;;;;4993957;28;20054;-48
2022/09/27 09:10:06;;;;;;;26.40;13.80;;;;;;;;;;4998462;28;20046;-53
2022/09/27 09:12:48;;;;;;;27.75;14.05;;;;;;;;;;5000372;28;20073;-52
2022/09/27 09:15:26;;;;;;;18.13;10.90;;;;;;;;;;5001413;28;20140;-51
2022/09/27 09:17:57;;;;;;;20.88;11.05;;;;;;;;;;5014823;28;20104;-46
2022/09/27 09:20:30;;;;;;;19.63;10.27;;;;;;;;;;5011993;28;20064;-48
2022/09/27 09:23:04;;;;;;;18.95;10.27;;;;;;;;;;5003925;28;20061;-51
2022/09/27 09:25:34;;;;;;;21.38;12.30;;;;;;;;;;5007671;28;20060;-52
2022/09/27 09:28:09;;;;;;;22.77;12.35;;;;;;;;;;5014700;28;20064;-46
2022/09/27 09:30:40;;;;;;;22.95;12.57;;;;;;;;;;5010476;28;20048;-47
2022/09/27 09:33:14;;;;;;;21.67;12.80;;;;;;;;;;5008398;28;20149;-47
2022/09/27 09:35:42;;;;;;;22.25;12.50;;;;;;;;;;5004004;28;20049;-47
2022/09/27 09:38:12;;;;;;;25.52;13.68;;;;;;;;;;5011521;28;20071;-48
2022/09/27 09:40:41;;;;;;;22.60;12.15;;;;;;;;;;5012087;28;20046;-48
2022/09/27 09:43:11;;;;;;;26.00;13.27;;;;;;;;;;5005908;28;20406;-48
2022/09/27 09:45:40;;;;;;;25.67;12.65;;;;;;;;;;5013321;28;20049;-47
2022/09/27 09:48:10;;;;;;;21.20;12.63;;;;;;;;;;5010010;28;20145;-46
2022/09/27 09:50:42;;;;;;;21.45;12.75;;;;;;;;;;5013872;28;20045;-51
2022/09/27 09:53:14;;;;;;;19.63;11.60;;;;;;;;;;5005959;28;20061;-49
2022/09/27 09:55:43;;;;;;;21.17;11.77;;;;;;;;;;5005222;28;20100;-49
2022/09/27 09:58:15;;;;;;;20.80;12.15;;;;;;;;;;4998298;28;20046;-49
2022/09/27 10:00:44;;;;;;;20.50;12.20;;;;;;;;;;5005664;28;20124;-48
2022/09/27 10:03:12;;;;;;;18.75;10.63;;;;;;;;;;5012603;28;20054;-48
2022/09/27 10:05:45;;;;;;;16.67;9.85;;;;;;;;;;5011173;28;20368;-52
2022/09/27 10:08:18;;;;;;;13.80;9.48;;;;;;;;;;5001929;28;20050;-51
2022/09/27 10:10:45;;;;;;;17.88;10.65;;;;;;;;;;5003317;28;20137;-53
2022/09/27 10:13:15;;;;;;;17.63;10.35;;;;;;;;;;5009495;28;20054;-48
2022/09/27 10:15:43;;;;;;;17.33;10.38;;;;;;;;;;5006995;28;20056;-47
2022/09/27 10:18:13;;;;;;;16.67;9.80;;;;;;;;;;5012019;28;20471;-46
2022/09/27 10:20:43;;;;;;;15.85;9.40;;;;;;;;;;5000290;28;20057;-47
2022/09/27 10:23:11;;;;;;;15.73;9.52;;;;;;;;;;5009652;28;20459;-49
2022/09/27 10:25:51;;;;;;;17.55;10.95;;;;;;;;;;5009412;28;20050;-47
2022/09/27 10:28:32;;;;;;;17.00;8.75;;;;;;;;;;5009248;28;20149;-47
2022/09/27 10:30:59;;;;;;;16.80;10.20;;;;;;;;;;5005464;28;20134;-47
2022/09/27 10:33:27;;;;;;;14.93;8.18;;;;;;;;;;5004520;28;20045;-49
2022/09/27 10:35:54;;;;;;;16.40;9.57;;;;;;;;;;5010084;28;20076;-47
2022/09/27 10:38:26;;;;;;;21.45;11.85;;;;;;;;;;5004301;28;20054;-49
2022/09/27 10:40:54;;;;;;;15.75;9.25;;;;;;;;;;5006216;28;20041;-47
2022/09/27 10:43:26;;;;;;;16.45;9.40;;;;;;;;;;5009279;28;20088;-48
2022/09/27 10:45:59;;;;;;;13.90;8.13;;;;;;;;;;5008081;28;20057;-49
2022/09/27 10:48:26;;;;;;;18.52;10.20;;;;;;;;;;5011400;28;20474;-51
2022/09/27 10:50:57;;;;;;;18.80;10.02;;;;;;;;;;5009201;28;20053;-50
2022/09/27 10:53:25;;;;;;;18.83;10.48;;;;;;;;;;5007474;28;20045;-52
2022/09/27 10:55:53;;;;;;;16.65;9.32;;;;;;;;;;5011312;28;20069;-49
2022/09/27 10:58:25;;;;;;;19.67;10.30;;;;;;;;;;5011025;28;20489;-49
2022/09/27 11:00:55;;;;;;;21.08;10.52;;;;;;;;;;5005870;28;20049;-46
2022/09/27 11:03:23;;;;;;;16.77;9.55;;;;;;;;;;5008894;28;20506;-46
2022/09/27 11:05:49;;;;;;;18.20;9.75;;;;;;;;;;5012250;28;20050;-47
2022/09/27 11:08:24;;;;;;;17.45;9.32;;;;;;;;;;5012356;28;20050;-47
2022/09/27 11:11:02;;;;;;;17.77;9.52;;;;;;;;;;5007634;28;20056;-46
2022/09/27 11:13:31;;;;;;;20.00;9.45;;;;;;;;;;5004232;28;20856;-46
2022/09/27 11:16:16;;;;;;;14.85;8.82;;;;;;;;;;4999004;28;20525;-47
2022/09/27 11:18:49;;;;;;;20.10;11.88;;;;;;;;;;4996599;28;20056;-46
2022/09/27 11:21:20;;;;;;;13.95;8.90;;;;;;;;;;5004837;28;20042;-44
2022/09/27 11:23:51;;;;;;;12.18;7.75;;;;;;;;;;5009957;28;20056;-45
2022/09/27 11:26:26;;;;;;;13.93;8.00;;;;;;;;;;5016937;28;20057;-47
2022/09/27 11:28:57;;;;;;;11.77;7.32;;;;;;;;;;5012362;28;20463;-47
2022/09/27 11:31:28;;;;;;;13.65;7.75;;;;;;;;;;5011388;28;20042;-49
2022/09/27 11:34:00;;;;;;;12.43;7.38;;;;;;;;;;5011102;28;20045;-48
2022/09/27 11:36:34;;;;;;;14.30;8.07;;;;;;;;;;5006601;28;20057;-48
2022/09/27 11:39:05;;;;;;;12.25;8.13;;;;;;;;;;5006906;28;20103;-47
2022/09/27 11:41:42;;;;;;;14.85;8.13;;;;;;;;;;4999516;28;20055;-48
2022/09/27 11:44:28;;;;;;;12.35;7.63;;;;;;;;;;5002382;28;20065;-48
2022/09/27 11:46:59;;;;;;;13.23;6.90;;;;;;;;;;5009881;28;20053;-48
2022/09/27 11:55:36;;;;;;;13.48;7.53;;;;;;;;;;4997877;28;20029;-48
2022/09/27 11:58:11;;;;;;;13.88;7.65;;;;;;;;;;5009859;28;20147;-48
2022/09/27 12:00:43;;;;;;;10.90;7.00;;;;;;;;;;5011483;28;20042;-50
2022/09/27 12:03:28;;;;;;;12.98;6.78;;;;;;;;;;5012041;28;20053;-48
2022/09/27 12:06:01;;;;;;;16.23;7.50;;;;;;;;;;5011692;28;20042;-49
2022/09/27 12:08:43;;;;;;;16.92;8.90;;;;;;;;;;5012354;28;20100;-51
2022/09/27 12:11:12;;;;;;;14.00;8.30;;;;;;;;;;5011734;28;20054;-48
2022/09/27 12:13:42;;;;;;;15.35;9.05;;;;;;;;;;5011624;28;20497;-47
2022/09/27 12:16:10;;;;;;;19.08;10.75;;;;;;;;;;5006043;28;20054;-49
2022/09/27 12:21:56;;;;;;;13.40;8.13;;;;;;;;;;4989628;28;21071;-49
2022/09/27 12:24:23;;;;;;;13.23;8.57;;;;;;;;;;5002967;28;20143;-48
2022/09/27 12:26:51;;;;;;;17.00;9.10;;;;;;;;;;5006365;28;20048;-48
2022/09/27 12:29:21;;;;;;;16.33;8.93;;;;;;;;;;5010470;28;20414;-48
2022/09/27 12:31:52;;;;;;;16.00;9.55;;;;;;;;;;5010272;28;20049;-52
2022/09/27 12:34:19;;;;;;;17.83;10.25;;;;;;;;;;5006282;28;20150;-51
2022/09/27 12:36:47;;;;;;;16.00;9.85;;;;;;;;;;5009511;28;20518;-48
2022/09/27 12:39:17;;;;;;;19.75;12.25;;;;;;;;;;5006868;28;20833;-48
2022/09/27 12:41:48;;;;;;;22.60;14.90;;;;;;;;;;5005642;28;20041;-48
2022/09/27 12:44:17;;;;;;;25.20;13.73;;;;;;;;;;5009622;28;20486;-48
2022/09/27 12:46:49;;;;;;;26.02;14.70;;;;;;;;;;5012002;28;20054;-48
2022/09/27 12:49:20;;;;;;;21.85;14.95;;;;;;;;;;5008652;28;20462;-48
2022/09/27 12:51:50;;;;;;;21.95;13.57;;;;;;;;;;5010494;28;20042;-47
2022/09/27 12:54:30;;;;;;;22.17;14.52;;;;;;;;;;5014394;28;20057;-47
2022/09/27 12:57:00;;;;;;;20.65;13.10;;;;;;;;;;5012564;28;20061;-48
2022/09/27 12:59:50;;;;;;;26.02;15.30;;;;;;;;;;5011287;28;20057;-49
2022/09/27 13:02:33;;;;;;;19.90;13.02;;;;;;;;;;4988398;28;20053;-47
2022/09/27 13:05:08;;;;;;;20.00;11.88;;;;;;;;;;5013562;28;20077;-46
2022/09/27 13:07:42;;;;;;;17.02;10.70;;;;;;;;;;5014573;28;20081;-47
2022/09/27 13:10:26;;;;;;;16.60;10.65;;;;;;;;;;5012278;28;20582;-48
2022/09/27 13:12:54;;;;;;;15.88;9.77;;;;;;;;;;4983587;28;20050;-47
2022/09/27 13:15:22;;;;;;;16.58;10.38;;;;;;;;;;5012140;28;20466;-48
2022/09/27 13:17:58;;;;;;;16.58;9.20;;;;;;;;;;5010918;28;20045;-49
2022/09/27 13:20:38;;;;;;;22.63;11.75;;;;;;;;;;5013778;28;20057;-52
2022/09/27 13:23:25;;;;;;;17.33;11.68;;;;;;;;;;5007732;28;20061;-47
2022/09/27 13:25:53;;;;;;;19.30;11.18;;;;;;;;;;5010779;28;20053;-49
2022/09/27 13:28:34;;;;;;;18.45;10.77;;;;;;;;;;5012668;28;20077;-49
2022/09/27 13:31:01;;;;;;;18.02;11.40;;;;;;;;;;5013201;28;20120;-50
2022/09/27 13:33:32;;;;;;;18.85;12.02;;;;;;;;;;5014739;28;20054;-51
2022/09/27 13:36:06;;;;;;;23.35;13.52;;;;;;;;;;5003483;28;20050;-49
2022/09/27 13:38:32;;;;;;;21.65;12.88;;;;;;;;;;5009919;28;20049;-48
2022/09/27 13:41:14;;;;;;;23.52;13.93;;;;;;;;;;5009324;28;20748;-49
2022/09/27 13:43:47;;;;;;;23.58;13.80;;;;;;;;;;5007632;28;20085;-48
2022/09/27 13:46:16;;;;;;;20.25;13.25;;;;;;;;;;5012634;28;20042;-50
2022/09/27 13:48:46;;;;;;;22.88;12.95;;;;;;;;;;5013655;28;20070;-49
2022/09/27 13:51:18;;;;;;;26.17;14.55;;;;;;;;;;5014283;28;20394;-49
2022/09/27 13:53:55;;;;;;;24.13;14.73;;;;;;;;;;5011181;28;20058;-49
2022/09/27 13:56:36;;;;;;;22.80;14.25;;;;;;;;;;5012890;28;20421;-51
2022/09/27 13:59:06;;;;;;;22.55;14.65;;;;;;;;;;5009131;28;20053;-48
2022/09/27 14:01:33;;;;;;;25.02;14.90;;;;;;;;;;5012842;28;20046;-49
2022/09/27 14:04:04;;;;;;;16.08;11.20;;;;;;;;;;5010956;28;20065;-48
2022/09/27 14:06:34;;;;;;;18.52;11.85;;;;;;;;;;5007988;28;20078;-48
2022/09/27 14:09:02;;;;;;;15.82;9.93;;;;;;;;;;5013542;28;20604;-48
2022/09/27 14:11:30;;;;;;;16.15;9.57;;;;;;;;;;5013475;28;20044;-48
2022/09/27 14:13:57;;;;;;;19.85;10.43;;;;;;;;;;5012216;28;20053;-50
2022/09/27 14:16:26;;;;;;;19.20;11.45;;;;;;;;;;5011996;28;20766;-52
2022/09/27 14:18:56;;;;;;;17.83;9.82;;;;;;;;;;5013229;28;20080;-49
2022/09/27 14:21:27;;;;;;;14.15;9.35;;;;;;;;;;5012416;28;20054;-48
2022/09/27 14:23:54;;;;;;;16.13;9.48;;;;;;;;;;5009603;28;20108;-48
2022/09/27 14:26:22;;;;;;;15.82;9.35;;;;;;;;;;5010390;28;20112;-47
2022/09/27 14:28:49;;;;;;;16.23;9.73;;;;;;;;;;5005947;28;20133;-46
2022/09/27 14:31:21;;;;;;;15.75;10.10;;;;;;;;;;5009564;28;20061;-47
2022/09/27 14:33:50;;;;;;;17.05;10.68;;;;;;;;;;5007455;28;20054;-46
2022/09/27 14:39:12;;;;;;;17.30;10.77;;;;;;;;;;5007945;28;20077;-47
2022/09/27 14:41:39;;;;;;;18.90;11.32;;;;;;;;;;5000781;28;20042;-46
2022/09/27 14:44:11;;;;;;;20.17;13.23;;;;;;;;;;5008846;28;20065;-51
2022/09/27 14:46:38;;;;;;;18.13;11.60;;;;;;;;;;5007750;28;20062;-49
2022/09/27 14:49:18;;;;;;;18.75;11.70;;;;;;;;;;5011393;28;20045;-48
2022/09/27 14:51:50;;;;;;;18.33;11.05;;;;;;;;;;5010934;28;20054;-49
2022/09/27 14:54:20;;;;;;;18.30;10.73;;;;;;;;;;5011518;28;20060;-51
2022/09/27 14:56:47;;;;;;;16.55;11.32;;;;;;;;;;5013153;28;20057;-53